Time;durP1;ratioP1;P1;durP2;ratioP2;P2;SDS_P1;SDS_P2;PMS_P1;PMS_P2;Temp;Humidity;BMP_temperature;BMP_pressure;BME280_temperature;BME280_humidity;BME280_pressure;Samples;Min_cycle;Max_cycle;Signal;HPM_P1;HPM_P2
2023/05/28 00:02:33;;;;;;;8.70;4.13;;;;;12.90;97122.00;;;;4968198;28;20223;-74
2023/05/28 00:05:22;;;;;;;9.43;4.93;;;;;13.30;97125.00;;;;4969669;28;20330;-75
2023/05/28 00:08:13;;;;;;;8.50;4.20;;;;;13.10;97114.00;;;;4960531;28;20203;-75
2023/05/28 00:11:03;;;;;;;5.00;3.80;;;;;13.20;97107.00;;;;4961313;28;20691;-74
2023/05/28 00:13:52;;;;;;;11.53;4.70;;;;;13.10;97114.00;;;;4963855;28;20219;-74
2023/05/28 00:16:44;;;;;;;8.43;3.83;;;;;12.90;97100.00;;;;4948250;28;20203;-75
2023/05/28 00:19:34;;;;;;;8.60;3.67;;;;;12.60;97105.00;;;;4968782;28;20196;-74
2023/05/28 00:22:23;;;;;;;10.07;4.07;;;;;12.20;97091.00;;;;4969237;28;20265;-73
2023/05/28 00:25:13;;;;;;;4.40;3.50;;;;;12.50;97086.00;;;;4950190;28;20612;-74
2023/05/28 00:28:02;;;;;;;6.97;4.03;;;;;12.30;97091.00;;;;4942148;29;20209;-73
2023/05/28 00:30:51;;;;;;;8.93;3.60;;;;;12.40;97096.00;;;;4962074;28;20692;-73
2023/05/28 00:33:40;;;;;;;14.43;4.57;;;;;12.00;97088.00;;;;4970853;28;20226;-73
2023/05/28 00:36:31;;;;;;;9.47;4.07;;;;;11.90;97087.00;;;;4966731;28;20235;-73
2023/05/28 00:39:20;;;;;;;8.57;4.70;;;;;12.30;97090.00;;;;4964139;28;20218;-73
2023/05/28 00:42:12;;;;;;;5.77;3.70;;;;;12.30;97079.00;;;;4972753;28;20234;-74
2023/05/28 00:45:02;;;;;;;7.70;3.93;;;;;12.10;97085.00;;;;4968567;28;20235;-74
2023/05/28 00:47:51;;;;;;;7.93;4.00;;;;;12.30;97074.00;;;;4970496;28;20195;-73
2023/05/28 00:50:40;;;;;;;6.20;4.47;;;;;11.70;97079.00;;;;4965498;28;20573;-73
2023/05/28 00:53:31;;;;;;;6.80;4.17;;;;;11.10;97064.00;;;;4969380;28;20204;-72
2023/05/28 00:56:22;;;;;;;4.13;3.30;;;;;11.20;97066.00;;;;4970451;28;20227;-72
2023/05/28 00:59:12;;;;;;;6.83;3.77;;;;;11.40;97075.00;;;;4966095;28;20234;-73
2023/05/28 01:02:01;;;;;;;6.53;3.70;;;;;11.60;97066.00;;;;4960938;28;20227;-73
2023/05/28 01:04:51;;;;;;;9.23;3.90;;;;;11.80;97070.00;;;;4955492;28;20235;-73
2023/05/28 01:07:40;;;;;;;6.50;3.80;;;;;12.10;97062.00;;;;4962789;28;20222;-74
2023/05/28 01:10:31;;;;;;;9.83;5.00;;;;;12.30;97059.00;;;;4970994;28;20207;-75
2023/05/28 01:13:20;;;;;;;5.30;4.07;;;;;12.40;97061.00;;;;4967380;28;20670;-74
2023/05/28 01:16:09;;;;;;;8.77;3.97;;;;;12.60;97056.00;;;;4954670;28;20219;-74
2023/05/28 01:18:59;;;;;;;9.13;4.10;;;;;12.70;97050.00;;;;4971839;28;20590;-74
2023/05/28 01:21:48;;;;;;;6.40;4.10;;;;;11.90;97046.00;;;;4968564;28;20197;-73
2023/05/28 01:24:39;;;;;;;5.90;3.67;;;;;11.70;97048.00;;;;4969662;28;20705;-73
2023/05/28 01:27:29;;;;;;;7.13;4.03;;;;;11.70;97043.00;;;;4970446;28;20254;-73
2023/05/28 01:30:18;;;;;;;10.03;3.70;;;;;11.70;97042.00;;;;4967588;28;20199;-74
2023/05/28 01:33:07;;;;;;;8.77;4.97;;;;;11.30;97035.00;;;;4963473;28;20199;-73
2023/05/28 01:35:57;;;;;;;12.20;4.67;;;;;11.40;97034.00;;;;4961469;28;20231;-72
2023/05/28 01:38:48;;;;;;;7.40;4.00;;;;;11.40;97033.00;;;;4967886;28;20207;-75
2023/05/28 01:41:39;;;;;;;6.67;3.87;;;;;11.10;97041.00;;;;4969057;28;20208;-72
2023/05/28 01:44:28;;;;;;;10.10;4.60;;;;;11.30;97029.00;;;;4973117;28;20207;-75
2023/05/28 01:47:18;;;;;;;7.27;4.50;;;;;11.20;97029.00;;;;4948331;28;20205;-73
2023/05/28 01:50:08;;;;;;;6.80;3.93;;;;;11.10;97019.00;;;;4954225;28;20594;-74
2023/05/28 01:52:57;;;;;;;12.53;4.30;;;;;11.20;97015.00;;;;4962159;28;20558;-75
2023/05/28 01:55:46;;;;;;;13.30;4.37;;;;;11.60;97012.00;;;;4971644;28;20692;-74
2023/05/28 01:58:37;;;;;;;9.63;3.80;;;;;11.60;97018.00;;;;4965757;28;20692;-74
2023/05/28 02:01:29;;;;;;;11.43;3.73;;;;;11.20;97010.00;;;;4967552;28;20199;-73
2023/05/28 02:04:18;;;;;;;7.63;4.40;;;;;10.90;97012.00;;;;4967796;28;20231;-73
2023/05/28 02:07:07;;;;;;;5.87;4.50;;;;;11.00;97010.00;;;;4962340;28;20262;-73
2023/05/28 02:09:56;;;;;;;5.43;3.97;;;;;10.70;96998.00;;;;4958294;28;20207;-71
2023/05/28 02:12:45;;;;;;;7.30;3.97;;;;;10.70;96991.00;;;;4952554;28;20208;-73
2023/05/28 02:15:36;;;;;;;8.80;4.00;;;;;11.00;97001.00;;;;4953467;28;20626;-74
2023/05/28 02:18:25;;;;;;;7.00;4.73;;;;;11.40;97009.00;;;;4961601;28;20204;-74
2023/05/28 02:21:14;;;;;;;6.47;4.03;;;;;11.60;97004.00;;;;4966054;28;20555;-74
2023/05/28 02:24:03;;;;;;;5.17;3.33;;;;;11.30;97003.00;;;;4965453;28;20196;-75
2023/05/28 02:26:52;;;;;;;11.87;4.30;;;;;10.70;96998.00;;;;4970428;28;20203;-73
2023/05/28 02:29:43;;;;;;;8.07;3.93;;;;;10.30;97002.00;;;;4968735;28;20575;-74
2023/05/28 02:32:33;;;;;;;8.50;4.57;;;;;10.30;97001.00;;;;4969360;28;20230;-72
2023/05/28 02:35:23;;;;;;;8.03;4.63;;;;;10.50;96996.00;;;;4967501;28;20719;-73
2023/05/28 02:38:12;;;;;;;5.27;4.07;;;;;10.80;96992.00;;;;4951941;28;20203;-74
2023/05/28 02:41:01;;;;;;;8.97;4.47;;;;;10.40;96985.00;;;;4950530;28;20195;-74
2023/05/28 02:43:50;;;;;;;7.17;4.30;;;;;10.60;96999.00;;;;4968339;28;20204;-74
2023/05/28 02:46:39;;;;;;;8.33;4.57;;;;;10.60;96988.00;;;;4966075;28;20644;-73
2023/05/28 02:49:29;;;;;;;6.33;3.67;;;;;10.80;97001.00;;;;4969224;28;20590;-74
2023/05/28 02:52:19;;;;;;;13.30;5.23;;;;;10.40;96990.00;;;;4962622;28;20702;-73
2023/05/28 02:55:08;;;;;;;9.87;4.00;;;;;9.70;96999.00;;;;4969060;28;20234;-73
2023/05/28 02:57:58;;;;;;;7.33;4.20;;;;;9.80;96987.00;;;;4970186;28;20231;-72
2023/05/28 03:00:47;;;;;;;4.70;3.90;;;;;9.60;96990.00;;;;4968557;28;20203;-71
2023/05/28 03:03:36;;;;;;;9.93;4.77;;;;;9.70;96980.00;;;;4964534;28;20218;-74
2023/05/28 03:06:27;;;;;;;8.87;4.00;;;;;9.70;96990.00;;;;4968757;28;20231;-73
2023/05/28 03:09:16;;;;;;;11.57;4.30;;;;;9.70;96993.00;;;;4964989;28;20203;-71
2023/05/28 03:12:06;;;;;;;6.37;3.80;;;;;9.60;96991.00;;;;4962099;28;20211;-73
2023/05/28 03:14:55;;;;;;;13.27;4.00;;;;;10.20;96998.00;;;;4968019;28;20632;-74
2023/05/28 03:17:44;;;;;;;8.20;3.83;;;;;10.60;96988.00;;;;4969311;28;20218;-73
2023/05/28 03:20:33;;;;;;;10.53;3.90;;;;;10.20;96993.00;;;;4969882;28;20203;-73
2023/05/28 03:23:24;;;;;;;8.33;4.60;;;;;10.00;96988.00;;;;4965084;28;20568;-73
2023/05/28 03:26:13;;;;;;;9.77;4.73;;;;;9.90;96981.00;;;;4954743;28;20234;-72
2023/05/28 03:29:02;;;;;;;8.83;4.83;;;;;10.10;96983.00;;;;4968511;28;20217;-74
2023/05/28 03:31:51;;;;;;;8.00;4.40;;;;;10.20;96987.00;;;;4969520;28;20214;-73
2023/05/28 03:34:40;;;;;;;12.10;4.40;;;;;10.50;96981.00;;;;4956696;28;20246;-73
2023/05/28 03:37:29;;;;;;;9.07;4.07;;;;;10.90;96993.00;;;;4956382;28;20754;-72
2023/05/28 03:40:20;;;;;;;5.77;4.33;;;;;10.90;96996.00;;;;4951594;28;20208;-74
2023/05/28 03:43:09;;;;;;;11.27;4.37;;;;;10.80;96990.00;;;;4954643;28;20594;-73
2023/05/28 03:45:58;;;;;;;8.53;3.50;;;;;10.90;96988.00;;;;4948403;28;20226;-72
2023/05/28 03:48:47;;;;;;;6.20;4.47;;;;;10.80;96999.00;;;;4958213;28;20208;-72
2023/05/28 03:51:37;;;;;;;7.10;3.83;;;;;10.50;96986.00;;;;4951478;28;20216;-73
2023/05/28 03:54:26;;;;;;;10.23;5.30;;;;;10.20;96987.00;;;;4955951;28;20216;-72
2023/05/28 03:57:16;;;;;;;10.90;5.23;;;;;10.30;96989.00;;;;4962666;28;20211;-72
2023/05/28 04:00:09;;;;;;;10.60;5.50;;;;;10.40;96986.00;;;;4968785;28;20230;-73
2023/05/28 04:02:59;;;;;;;8.87;4.00;;;;;10.20;97006.00;;;;4962517;28;20210;-73
2023/05/28 04:05:48;;;;;;;8.07;4.50;;;;;10.30;96996.00;;;;4964215;28;20575;-73
2023/05/28 04:08:37;;;;;;;12.60;4.17;;;;;9.80;96997.00;;;;4966004;28;20219;-73
2023/05/28 04:11:28;;;;;;;8.80;4.30;;;;;10.20;96991.00;;;;4966033;28;20210;-73
2023/05/28 04:14:19;;;;;;;8.07;4.07;;;;;10.10;96988.00;;;;4969662;28;20242;-72
2023/05/28 04:17:08;;;;;;;7.20;4.30;;;;;9.80;96981.00;;;;4963593;28;20203;-71
2023/05/28 04:19:58;;;;;;;6.30;4.20;;;;;10.20;96999.00;;;;4962852;28;20215;-72
2023/05/28 04:22:47;;;;;;;9.50;4.00;;;;;10.50;96982.00;;;;4961382;28;20595;-73
2023/05/28 04:25:37;;;;;;;11.13;4.90;;;;;10.60;96985.00;;;;4967602;28;20227;-72
2023/05/28 04:28:27;;;;;;;6.87;4.97;;;;;10.80;96993.00;;;;4967925;28;20215;-72
2023/05/28 04:31:18;;;;;;;9.07;5.10;;;;;10.60;96996.00;;;;4966112;28;20243;-71
2023/05/28 04:34:07;;;;;;;10.57;4.53;;;;;10.80;96997.00;;;;4969066;28;20419;-73
2023/05/28 04:36:57;;;;;;;7.83;4.17;;;;;10.80;96988.00;;;;4959486;28;20207;-72
2023/05/28 04:39:47;;;;;;;7.00;5.03;;;;;11.30;96990.00;;;;4967505;28;20199;-72
2023/05/28 04:42:36;;;;;;;4.67;3.93;;;;;11.20;96991.00;;;;4965547;28;20207;-72
2023/05/28 04:45:25;;;;;;;6.73;4.40;;;;;11.40;96983.00;;;;4962317;28;20219;-72
2023/05/28 04:48:15;;;;;;;6.67;4.43;;;;;11.60;96982.00;;;;4966018;28;20215;-73
2023/05/28 04:51:05;;;;;;;10.33;5.07;;;;;11.80;96979.00;;;;4969153;28;20222;-71
2023/05/28 04:53:54;;;;;;;6.43;4.27;;;;;12.10;96992.00;;;;4967910;28;20231;-71
2023/05/28 04:56:43;;;;;;;8.63;4.90;;;;;12.20;97001.00;;;;4964187;28;20203;-71
2023/05/28 04:59:33;;;;;;;7.00;4.87;;;;;12.20;96998.00;;;;4957683;28;20208;-73
2023/05/28 05:02:23;;;;;;;8.53;4.57;;;;;12.50;96993.00;;;;4956670;28;20203;-73
2023/05/28 05:05:14;;;;;;;8.83;4.57;;;;;12.50;97000.00;;;;4951076;28;20271;-73
2023/05/28 05:08:03;;;;;;;7.27;4.17;;;;;12.80;96992.00;;;;4960673;28;20196;-73
2023/05/28 05:10:52;;;;;;;7.50;4.13;;;;;12.90;96987.00;;;;4947084;28;20215;-73
2023/05/28 05:13:41;;;;;;;9.60;5.37;;;;;13.00;96984.00;;;;4955922;28;20203;-73
2023/05/28 05:16:30;;;;;;;9.30;5.37;;;;;13.20;96986.00;;;;4969926;28;20227;-73
2023/05/28 05:19:19;;;;;;;8.67;5.00;;;;;13.30;96982.00;;;;4967141;28;20231;-74
2023/05/28 05:22:10;;;;;;;8.23;5.23;;;;;12.90;96987.00;;;;4961151;28;20676;-71
2023/05/28 05:24:59;;;;;;;7.80;4.67;;;;;13.70;96990.00;;;;4967386;28;20223;-71
2023/05/28 05:27:50;;;;;;;9.07;3.90;;;;;13.90;96991.00;;;;4967169;28;20597;-72
2023/05/28 05:30:39;;;;;;;7.40;4.37;;;;;13.70;96991.00;;;;4970109;28;20681;-74
2023/05/28 05:33:28;;;;;;;8.70;4.90;;;;;13.50;96985.00;;;;4969493;28;20544;-72
2023/05/28 05:36:17;;;;;;;9.50;4.60;;;;;14.10;96998.00;;;;4951004;28;20243;-73
2023/05/28 05:39:08;;;;;;;10.67;5.43;;;;;14.60;96998.00;;;;4953528;28;20203;-72
2023/05/28 05:41:57;;;;;;;10.37;4.70;;;;;14.70;96997.00;;;;4963042;28;20705;-71
2023/05/28 05:44:46;;;;;;;5.53;3.70;;;;;14.80;97008.00;;;;4966636;28;20231;-71
2023/05/28 05:47:35;;;;;;;8.60;4.30;;;;;15.10;97001.00;;;;4968697;28;20228;-73
2023/05/28 05:50:24;;;;;;;7.30;3.97;;;;;15.40;96998.00;;;;4969685;28;20203;-71
2023/05/28 05:53:13;;;;;;;8.23;4.40;;;;;15.90;96998.00;;;;4965266;28;20203;-72
2023/05/28 05:56:04;;;;;;;10.87;4.70;;;;;16.00;96996.00;;;;4967820;28;20235;-73
2023/05/28 05:58:53;;;;;;;14.17;5.20;;;;;15.80;96993.00;;;;4964316;28;20604;-71
2023/05/28 06:01:42;;;;;;;11.53;4.93;;;;;15.80;96996.00;;;;4967589;28;20592;-72
2023/05/28 06:04:31;;;;;;;9.50;5.43;;;;;16.00;96982.00;;;;4972266;28;20203;-72
2023/05/28 06:07:21;;;;;;;11.27;4.73;;;;;15.90;96986.00;;;;4968144;28;20207;-74
2023/05/28 06:10:10;;;;;;;8.83;3.77;;;;;16.00;96987.00;;;;4970428;28;20215;-73
2023/05/28 06:13:01;;;;;;;6.80;4.60;;;;;16.40;96990.00;;;;4961973;28;20208;-73
2023/05/28 06:15:50;;;;;;;9.97;5.63;;;;;16.90;96983.00;;;;4969459;28;20239;-74
2023/05/28 06:18:39;;;;;;;10.93;5.17;;;;;17.10;96991.00;;;;4963888;28;20585;-71
2023/05/28 06:21:28;;;;;;;5.87;3.80;;;;;17.20;96992.00;;;;4962352;28;20200;-72
2023/05/28 06:24:18;;;;;;;7.07;4.07;;;;;16.90;96983.00;;;;4963989;28;20592;-72
2023/05/28 06:27:08;;;;;;;9.97;4.07;;;;;17.10;96982.00;;;;4968054;28;20210;-71
2023/05/28 06:29:58;;;;;;;6.97;3.63;;;;;17.60;96996.00;;;;4963724;28;20214;-70
2023/05/28 06:32:47;;;;;;;9.77;4.67;;;;;18.00;96992.00;;;;4969838;28;20199;-72
2023/05/28 06:35:37;;;;;;;6.83;4.17;;;;;17.80;96998.00;;;;4961035;28;20784;-72
2023/05/28 06:38:26;;;;;;;5.60;2.80;;;;;18.20;96997.00;;;;4969603;28;20200;-71
2023/05/28 06:41:15;;;;;;;9.07;4.10;;;;;18.40;96998.00;;;;4965294;28;20203;-73
2023/05/28 06:44:04;;;;;;;11.77;4.10;;;;;18.60;96999.00;;;;4959449;28;20208;-72
2023/05/28 06:46:55;;;;;;;8.43;4.47;;;;;18.80;96992.00;;;;4969770;28;20203;-74
2023/05/28 06:49:44;;;;;;;9.80;3.60;;;;;18.90;97004.00;;;;4956053;28;20226;-72
2023/05/28 06:52:33;;;;;;;6.93;4.00;;;;;19.20;96998.00;;;;4964913;28;20234;-72
2023/05/28 06:55:22;;;;;;;6.67;3.83;;;;;19.50;97002.00;;;;4961418;28;20227;-72
2023/05/28 06:58:11;;;;;;;9.10;4.50;;;;;19.70;97003.00;;;;4956646;28;20212;-73
2023/05/28 07:01:01;;;;;;;6.73;3.30;;;;;19.70;97003.00;;;;4947376;28;20564;-73
2023/05/28 07:03:52;;;;;;;14.87;4.17;;;;;19.90;96996.00;;;;4956255;28;20227;-73
2023/05/28 07:06:41;;;;;;;6.87;4.00;;;;;20.10;96993.00;;;;4946491;28;20224;-73
2023/05/28 07:09:30;;;;;;;4.60;3.30;;;;;20.30;96998.00;;;;4950324;28;20661;-73
2023/05/28 07:12:19;;;;;;;7.70;3.90;;;;;20.60;96992.00;;;;4954857;28;20210;-73
2023/05/28 07:15:10;;;;;;;9.33;4.83;;;;;20.90;96998.00;;;;4960661;28;20707;-73
2023/05/28 07:18:00;;;;;;;9.67;5.40;;;;;21.00;96990.00;;;;4958362;28;20219;-72
2023/05/28 07:20:51;;;;;;;9.67;3.73;;;;;21.20;96992.00;;;;4962440;28;20282;-72
2023/05/28 07:23:40;;;;;;;6.57;3.73;;;;;21.50;96989.00;;;;4966548;28;20248;-72
2023/05/28 07:26:29;;;;;;;11.07;3.80;;;;;21.20;97002.00;;;;4964276;28;20519;-72
2023/05/28 07:29:18;;;;;;;7.93;3.87;;;;;21.50;96992.00;;;;4962257;28;20199;-75
2023/05/28 07:32:08;;;;;;;5.50;3.50;;;;;21.80;96990.00;;;;4957273;28;20921;-73
2023/05/28 07:34:57;;;;;;;5.30;3.23;;;;;21.80;96988.00;;;;4965397;28;20582;-73
2023/05/28 07:37:47;;;;;;;6.43;4.33;;;;;22.10;96984.00;;;;4965985;28;20554;-72
2023/05/28 07:40:36;;;;;;;6.53;3.33;;;;;22.50;96990.00;;;;4963581;28;20211;-74
2023/05/28 07:43:25;;;;;;;6.77;4.03;;;;;22.50;96988.00;;;;4967134;28;20699;-74
2023/05/28 07:46:16;;;;;;;9.57;4.17;;;;;22.10;96973.00;;;;4958125;28;20220;-75
2023/05/28 07:49:05;;;;;;;8.30;4.00;;;;;22.20;96984.00;;;;4956212;28;20266;-72
2023/05/28 07:51:54;;;;;;;8.17;3.90;;;;;22.60;96978.00;;;;4965409;28;20231;-75
2023/05/28 07:54:45;;;;;;;8.47;4.10;;;;;22.50;96969.00;;;;4961632;28;20239;-73
2023/05/28 07:57:34;;;;;;;9.43;3.90;;;;;22.70;96972.00;;;;4961810;28;20211;-73
2023/05/28 08:00:23;;;;;;;9.47;4.37;;;;;22.90;96971.00;;;;4960204;28;20223;-73
2023/05/28 08:03:12;;;;;;;6.73;3.57;;;;;23.30;96968.00;;;;4963712;28;20207;-73
2023/05/28 08:06:01;;;;;;;9.00;4.00;;;;;23.10;96962.00;;;;4944912;28;20232;-74
2023/05/28 08:08:50;;;;;;;8.27;3.77;;;;;22.90;96953.00;;;;4957570;28;20222;-72
2023/05/28 08:11:41;;;;;;;6.57;4.13;;;;;23.50;96959.00;;;;4963683;28;20215;-72
2023/05/28 08:14:30;;;;;;;8.33;5.10;;;;;23.60;96958.00;;;;4965940;28;20247;-73
2023/05/28 08:17:21;;;;;;;5.07;3.30;;;;;23.70;96959.00;;;;4964880;28;20277;-73
2023/05/28 08:20:11;;;;;;;5.63;3.63;;;;;23.90;96955.00;;;;4967616;28;20203;-74
2023/05/28 08:23:00;;;;;;;13.07;4.03;;;;;24.20;96952.00;;;;4953243;28;20276;-74
2023/05/28 08:25:49;;;;;;;5.47;3.40;;;;;24.40;96952.00;;;;4949413;28;20709;-74
2023/05/28 08:28:40;;;;;;;6.80;3.60;;;;;24.40;96949.00;;;;4947938;28;20952;-74
2023/05/28 08:31:29;;;;;;;10.00;4.73;;;;;24.50;96953.00;;;;4957970;28;20693;-74
2023/05/28 08:34:18;;;;;;;7.90;3.23;;;;;23.80;96948.00;;;;4952504;28;20270;-73
2023/05/28 08:37:07;;;;;;;11.10;3.93;;;;;23.60;96950.00;;;;4961205;28;20233;-74
2023/05/28 08:39:56;;;;;;;9.30;3.77;;;;;24.30;96944.00;;;;4967489;28;20207;-73
2023/05/28 08:42:45;;;;;;;8.23;3.63;;;;;24.00;96939.00;;;;4953830;28;20254;-73
2023/05/28 08:45:37;;;;;;;7.20;3.93;;;;;24.00;96944.00;;;;4957445;28;20219;-75
2023/05/28 08:48:26;;;;;;;6.03;3.90;;;;;24.50;96933.00;;;;4966481;28;20203;-74
2023/05/28 08:51:16;;;;;;;10.33;4.20;;;;;24.60;96938.00;;;;4965938;28;20207;-74
2023/05/28 08:54:08;;;;;;;6.17;4.20;;;;;24.30;96932.00;;;;4968650;28;20195;-74
2023/05/28 08:56:57;;;;;;;9.03;4.30;;;;;24.80;96928.00;;;;4968486;28;20601;-75
2023/05/28 08:59:46;;;;;;;10.80;4.43;;;;;24.50;96928.00;;;;4962018;28;20237;-74
2023/05/28 09:02:37;;;;;;;8.10;3.53;;;;;24.10;96926.00;;;;4969079;28;20199;-75
2023/05/28 09:05:26;;;;;;;6.30;3.37;;;;;24.70;96922.00;;;;4968961;28;20707;-74
2023/05/28 09:08:15;;;;;;;8.70;3.40;;;;;24.10;96919.00;;;;4963679;28;20699;-74
2023/05/28 09:11:11;;;;;;;11.27;3.80;;;;;24.90;96925.00;;;;4964606;28;20211;-74
2023/05/28 09:14:03;;;;;;;7.33;4.20;;;;;25.30;96931.00;;;;4967827;28;20453;-75
2023/05/28 09:16:52;;;;;;;8.57;4.27;;;;;23.60;96914.00;;;;4966376;28;20286;-75
2023/05/28 09:19:51;;;;;;;9.30;4.13;;;;;25.10;96927.00;;;;4959304;28;20277;-76
2023/05/28 09:22:41;;;;;;;6.03;3.77;;;;;25.20;96918.00;;;;4962535;28;20326;-76
2023/05/28 09:25:32;;;;;;;6.30;3.60;;;;;25.80;96911.00;;;;4968516;28;20371;-76
2023/05/28 09:28:24;;;;;;;5.30;3.27;;;;;26.40;96910.00;;;;4963419;28;20214;-77
2023/05/28 09:31:14;;;;;;;9.27;4.13;;;;;26.50;96909.00;;;;4959940;28;20203;-76
2023/05/28 09:34:06;;;;;;;7.30;3.60;;;;;26.10;96899.00;;;;4946478;28;20236;-75
2023/05/28 09:37:02;;;;;;;5.40;3.70;;;;;24.50;96892.00;;;;4963064;28;20232;-75
2023/05/28 09:40:03;;;;;;;6.70;4.97;;;;;26.40;96895.00;;;;4969761;28;20215;-76
2023/05/28 09:42:53;;;;;;;8.13;3.87;;;;;26.80;96896.00;;;;4966616;28;20219;-76
2023/05/28 09:45:42;;;;;;;9.27;4.10;;;;;26.20;96890.00;;;;4966082;28;20226;-74
2023/05/28 09:48:31;;;;;;;8.57;4.10;;;;;26.60;96889.00;;;;4961994;28;20204;-75
2023/05/28 09:51:24;;;;;;;7.63;3.53;;;;;26.40;96884.00;;;;4967136;28;20207;-76
2023/05/28 09:54:14;;;;;;;4.83;3.30;;;;;27.30;96895.00;;;;4968835;28;20207;-76
2023/05/28 09:57:04;;;;;;;9.13;3.93;;;;;26.50;96884.00;;;;4967600;28;20215;-75
2023/05/28 09:59:55;;;;;;;6.07;4.30;;;;;27.20;96890.00;;;;4964012;28;20211;-76
2023/05/28 10:02:51;;;;;;;5.47;4.67;;;;;27.00;96888.00;;;;4965755;28;20573;-75
2023/05/28 10:05:43;;;;;;;11.00;4.40;;;;;27.00;96881.00;;;;4960607;28;20310;-76
2023/05/28 10:08:37;;;;;;;8.07;4.17;;;;;28.00;96873.00;;;;4967425;28;20199;-77
2023/05/28 10:11:30;;;;;;;10.73;5.17;;;;;28.20;96870.00;;;;4969965;28;20207;-76
2023/05/28 10:14:20;;;;;;;7.17;3.83;;;;;27.90;96884.00;;;;4969534;28;20199;-77
2023/05/28 10:17:10;;;;;;;5.97;4.10;;;;;28.20;96870.00;;;;4966592;28;20223;-75
2023/05/28 10:20:00;;;;;;;7.33;3.97;;;;;27.50;96866.00;;;;4966014;28;20703;-75
2023/05/28 10:22:50;;;;;;;5.87;3.40;;;;;27.90;96858.00;;;;4965225;28;21045;-77
2023/05/28 10:25:39;;;;;;;8.03;4.07;;;;;27.80;96854.00;;;;4965450;28;20223;-76
2023/05/28 10:28:31;;;;;;;8.73;4.30;;;;;28.10;96855.00;;;;4970991;28;20222;-76
2023/05/28 10:31:22;;;;;;;7.40;4.50;;;;;27.90;96862.00;;;;4966795;28;20199;-76
2023/05/28 10:34:16;;;;;;;6.40;4.10;;;;;28.30;96850.00;;;;4962433;28;20589;-76
2023/05/28 10:37:09;;;;;;;9.07;4.30;;;;;28.00;96851.00;;;;4959392;28;20349;-75
2023/05/28 10:40:01;;;;;;;8.43;4.00;;;;;28.10;96849.00;;;;4960786;28;20678;-76
2023/05/28 10:42:50;;;;;;;8.50;4.47;;;;;28.40;96847.00;;;;4958880;28;20203;-77
2023/05/28 10:45:41;;;;;;;7.60;4.47;;;;;28.90;96846.00;;;;4967224;28;20435;-77
2023/05/28 10:48:31;;;;;;;9.90;4.20;;;;;29.80;96848.00;;;;4967101;28;20208;-76
2023/05/28 10:51:21;;;;;;;8.13;4.13;;;;;28.80;96850.00;;;;4967281;28;20615;-75
2023/05/28 10:54:16;;;;;;;7.43;3.63;;;;;27.00;96834.00;;;;4964517;28;20209;-76
2023/05/28 10:57:09;;;;;;;8.50;4.20;;;;;27.60;96839.00;;;;4963057;28;20223;-77
2023/05/28 11:00:00;;;;;;;4.83;4.13;;;;;28.10;96831.00;;;;4963307;28;20208;-77
2023/05/28 11:02:53;;;;;;;7.77;3.90;;;;;29.60;96834.00;;;;4963134;28;20677;-77
2023/05/28 11:05:43;;;;;;;8.07;3.73;;;;;30.00;96839.00;;;;4940552;28;20705;-76
2023/05/28 11:08:32;;;;;;;8.37;3.93;;;;;29.60;96836.00;;;;4958415;28;20204;-76
2023/05/28 11:11:21;;;;;;;7.83;4.07;;;;;29.70;96843.00;;;;4964798;28;20205;-75
2023/05/28 11:14:10;;;;;;;6.03;3.83;;;;;30.10;96835.00;;;;4965112;28;20210;-75
2023/05/28 11:16:59;;;;;;;6.97;3.87;;;;;29.30;96829.00;;;;4953771;28;20238;-74
2023/05/28 11:19:51;;;;;;;8.70;5.00;;;;;28.80;96825.00;;;;4965076;28;20222;-76
2023/05/28 11:22:40;;;;;;;8.20;4.63;;;;;29.60;96830.00;;;;4967438;28;20213;-75
2023/05/28 11:25:29;;;;;;;6.27;3.57;;;;;29.90;96823.00;;;;4962768;28;20234;-76
2023/05/28 11:28:20;;;;;;;7.40;4.80;;;;;30.60;96816.00;;;;4963840;28;20759;-76
2023/05/28 11:31:10;;;;;;;9.37;3.70;;;;;31.20;96811.00;;;;4958202;28;20213;-76
2023/05/28 11:33:59;;;;;;;6.67;4.10;;;;;31.30;96811.00;;;;4947822;28;20217;-77
2023/05/28 11:36:49;;;;;;;7.63;3.97;;;;;31.90;96803.00;;;;4958421;28;20228;-77
2023/05/28 11:39:39;;;;;;;10.17;4.20;;;;;30.20;96812.00;;;;4968520;28;20213;-74
2023/05/28 11:42:29;;;;;;;5.17;3.80;;;;;30.70;96813.00;;;;4963824;28;20224;-76
2023/05/28 11:45:20;;;;;;;8.13;4.03;;;;;31.60;96803.00;;;;4967978;28;20220;-79
2023/05/28 11:48:13;;;;;;;6.97;4.80;;;;;31.60;96800.00;;;;4952494;28;20226;-75
2023/05/28 11:51:02;;;;;;;5.90;4.50;;;;;31.60;96804.00;;;;4952469;28;20196;-76
2023/05/28 11:53:53;;;;;;;9.33;4.43;;;;;30.80;96809.00;;;;4954285;28;20227;-78
2023/05/28 11:56:42;;;;;;;7.27;4.40;;;;;30.30;96808.00;;;;4964000;28;20230;-78
2023/05/28 11:59:31;;;;;;;6.00;3.90;;;;;31.70;96802.00;;;;4966518;28;20207;-78
2023/05/28 12:02:22;;;;;;;6.23;4.30;;;;;32.40;96802.00;;;;4946741;28;20210;-77
2023/05/28 12:05:12;;;;;;;7.20;3.53;;;;;33.10;96804.00;;;;4966760;28;20227;-78
2023/05/28 12:08:01;;;;;;;8.07;3.90;;;;;33.70;96794.00;;;;4965457;28;20248;-77
2023/05/28 12:10:51;;;;;;;6.95;5.32;;;;;30.50;96804.00;;;;4957382;28;20225;-74
2023/05/28 12:13:41;;;;;;;6.27;4.43;;;;;28.70;96793.00;;;;4968156;28;20259;-76
2023/05/28 12:16:30;;;;;;;7.50;4.40;;;;;31.00;96799.00;;;;4968005;28;20407;-76
2023/05/28 12:19:19;;;;;;;6.13;4.37;;;;;32.00;96790.00;;;;4961244;28;20708;-76
2023/05/28 12:22:16;;;;;;;6.80;4.38;;;;;30.10;96797.00;;;;4963135;28;20722;-77
2023/05/28 12:25:06;;;;;;;5.70;3.40;;;;;31.60;96800.00;;;;4954597;28;20230;-76
2023/05/28 12:27:57;;;;;;;8.83;5.03;;;;;32.40;96798.00;;;;4961823;28;20711;-75
2023/05/28 12:30:49;;;;;;;6.13;3.90;;;;;30.50;96784.00;;;;4973763;28;20210;-76
2023/05/28 12:33:39;;;;;;;11.05;4.05;;;;;29.50;96781.00;;;;4972701;28;20215;-75
2023/05/28 12:36:28;;;;;;;4.85;3.53;;;;;28.80;96776.00;;;;4964908;28;20242;-73
2023/05/28 12:39:17;;;;;;;6.07;4.53;;;;;30.70;96770.00;;;;4961525;28;20211;-76
2023/05/28 12:42:07;;;;;;;5.67;3.60;;;;;32.30;96782.00;;;;4952885;28;20674;-75
2023/05/28 12:44:57;;;;;;;7.40;3.60;;;;;33.30;96764.00;;;;4966486;28;20237;-75
2023/05/28 12:47:46;;;;;;;7.07;3.75;;;;;34.10;96762.00;;;;4939150;28;20230;-76
2023/05/28 12:50:35;;;;;;;7.15;4.47;;;;;34.00;96774.00;;;;4970235;28;20602;-78
2023/05/28 12:53:24;;;;;;;5.63;4.00;;;;;34.60;96767.00;;;;4968211;28;20109;-75
2023/05/28 12:56:14;;;;;;;6.50;3.60;;;;;33.90;96760.00;;;;4963203;28;20643;-76
2023/05/28 12:59:03;;;;;;;7.60;4.40;;;;;29.60;96744.00;;;;4962917;28;20203;-77
2023/05/28 13:01:54;;;;;;;6.30;4.00;;;;;30.70;96747.00;;;;4971606;28;20708;-75
2023/05/28 13:04:43;;;;;;;6.95;3.97;;;;;30.90;96759.00;;;;4956625;28;20235;-75
2023/05/28 13:07:32;;;;;;;6.15;5.30;;;;;33.50;96757.00;;;;4969486;28;20210;-75
2023/05/28 13:10:21;;;;;;;8.93;4.55;;;;;33.40;96752.00;;;;4971332;28;20699;-76
2023/05/28 13:13:10;;;;;;;5.88;4.43;;;;;34.50;96754.00;;;;4972095;28;20215;-76
2023/05/28 13:15:59;;;;;;;4.95;3.88;;;;;33.60;96758.00;;;;4945766;28;20231;-76
2023/05/28 13:18:49;;;;;;;6.32;4.00;;;;;33.90;96748.00;;;;4968887;28;20211;-77
2023/05/28 13:21:39;;;;;;;6.57;3.65;;;;;34.50;96754.00;;;;4971393;28;20596;-76
2023/05/28 13:24:28;;;;;;;6.22;3.40;;;;;34.50;96749.00;;;;4971706;28;20202;-76
2023/05/28 13:27:21;;;;;;;6.88;3.83;;;;;34.70;96747.00;;;;4956176;28;20677;-77
2023/05/28 13:30:11;;;;;;;5.88;3.55;;;;;34.90;96732.00;;;;4949146;28;20203;-77
2023/05/28 13:33:00;;;;;;;7.35;3.72;;;;;35.30;96731.00;;;;4952368;28;20224;-78
2023/05/28 13:35:50;;;;;;;3.85;3.22;;;;;36.30;96747.00;;;;4942188;28;20235;-77
2023/05/28 13:38:40;;;;;;;6.25;3.90;;;;;35.90;96731.00;;;;4957182;28;20196;-77
2023/05/28 13:41:30;;;;;;;7.40;4.15;;;;;35.20;96721.00;;;;4957888;28;20203;-78
2023/05/28 13:44:20;;;;;;;5.15;4.10;;;;;36.00;96719.00;;;;4966032;28;20583;-77
2023/05/28 13:47:09;;;;;;;6.90;3.60;;;;;36.90;96727.00;;;;4968516;28;20270;-77
2023/05/28 13:49:58;;;;;;;4.35;3.25;;;;;31.80;96725.00;;;;4971440;28;20285;-78
2023/05/28 13:52:49;;;;;;;5.25;3.72;;;;;34.80;96725.00;;;;4955342;28;20207;-76
2023/05/28 13:55:38;;;;;;;6.55;4.13;;;;;35.80;96727.00;;;;4964897;28;20219;-76
2023/05/28 13:58:27;;;;;;;6.63;3.45;;;;;35.20;96719.00;;;;4970007;28;20203;-76
2023/05/28 14:01:16;;;;;;;6.25;3.70;;;;;34.50;96714.00;;;;4953172;28;20681;-74
2023/05/28 14:04:05;;;;;;;4.90;3.97;;;;;36.10;96712.00;;;;4942583;28;20641;-75
2023/05/28 14:06:54;;;;;;;6.78;4.28;;;;;34.40;96714.00;;;;4964420;28;20211;-76
2023/05/28 14:09:45;;;;;;;5.32;3.25;;;;;35.10;96725.00;;;;4956925;28;20238;-76